Time;durP1;ratioP1;P1;durP2;ratioP2;P2;SDS_P1;SDS_P2;PMS_P1;PMS_P2;Temp;Humidity;BMP_temperature;BMP_pressure;BME280_temperature;BME280_humidity;BME280_pressure;Samples;Min_cycle;Max_cycle;Signal;HPM_P1;HPM_P2
2023/01/07 00:01:01;;;;;;;5.57;3.95;;;;;;;;;;10305323;28;20041;-61
2023/01/07 00:06:00;;;;;;;8.05;3.90;;;;;;;;;;10287936;28;20075;-61
2023/01/07 00:11:01;;;;;;;7.10;4.15;;;;;;;;;;10292902;28;20049;-60
2023/01/07 00:15:59;;;;;;;5.85;3.97;;;;;;;;;;10315497;28;20044;-59
2023/01/07 00:20:59;;;;;;;11.25;3.88;;;;;;;;;;10301675;28;20057;-59
2023/01/07 00:26:00;;;;;;;4.60;3.90;;;;;;;;;;10299010;28;20064;-60
2023/01/07 00:30:59;;;;;;;6.65;5.82;;;;;;;;;;10303873;28;20451;-61
2023/01/07 00:36:02;;;;;;;39.88;29.35;;;;;;;;;;10295736;28;20156;-61
2023/01/07 00:41:01;;;;;;;6.30;5.70;;;;;;;;;;10269274;28;20053;-61
2023/01/07 00:45:59;;;;;;;7.50;4.45;;;;;;;;;;10285217;28;20053;-61
2023/01/07 00:50:57;;;;;;;14.10;7.60;;;;;;;;;;10281250;28;20038;-60
2023/01/07 00:55:57;;;;;;;18.45;9.38;;;;;;;;;;10291054;28;20055;-61
2023/01/07 01:00:56;;;;;;;21.17;11.20;;;;;;;;;;10295506;28;20072;-61
2023/01/07 01:05:55;;;;;;;12.10;10.18;;;;;;;;;;10281943;28;20072;-62
2023/01/07 01:10:53;;;;;;;11.35;8.25;;;;;;;;;;10267704;28;20071;-62
2023/01/07 01:15:52;;;;;;;6.28;4.20;;;;;;;;;;10281458;28;20069;-62
2023/01/07 01:20:51;;;;;;;4.78;4.28;;;;;;;;;;10274347;28;20155;-61
2023/01/07 01:25:49;;;;;;;6.43;5.28;;;;;;;;;;10293929;28;20441;-60
2023/01/07 01:30:55;;;;;;;6.63;4.35;;;;;;;;;;10270173;28;20075;-61
2023/01/07 01:35:56;;;;;;;8.82;4.75;;;;;;;;;;10267467;28;20056;-61
2023/01/07 01:40:54;;;;;;;5.90;4.55;;;;;;;;;;10276870;28;20063;-61
2023/01/07 01:45:53;;;;;;;6.30;5.05;;;;;;;;;;10279702;28;20072;-61
2023/01/07 01:50:52;;;;;;;5.88;3.88;;;;;;;;;;10272880;28;20045;-61
2023/01/07 01:55:53;;;;;;;7.07;4.88;;;;;;;;;;10267451;28;20060;-60
2023/01/07 02:00:51;;;;;;;6.57;4.80;;;;;;;;;;10289181;28;20052;-61
2023/01/07 02:05:52;;;;;;;5.15;4.65;;;;;;;;;;10258346;28;20493;-61
2023/01/07 02:11:05;;;;;;;6.28;4.45;;;;;;;;;;10281738;28;20124;-61
2023/01/07 02:16:08;;;;;;;5.80;4.82;;;;;;;;;;10281853;28;20469;-61
2023/01/07 02:21:16;;;;;;;5.72;3.95;;;;;;;;;;10282076;28;20068;-61
2023/01/07 02:26:27;;;;;;;4.82;4.10;;;;;;;;;;10260398;28;20065;-61
2023/01/07 02:31:35;;;;;;;4.88;4.38;;;;;;;;;;10271754;28;20105;-61
2023/01/07 02:36:44;;;;;;;5.82;4.65;;;;;;;;;;10280654;28;20048;-61
2023/01/07 02:41:45;;;;;;;8.80;4.50;;;;;;;;;;10293429;28;20044;-61
2023/01/07 02:46:46;;;;;;;5.47;4.75;;;;;;;;;;10301781;28;20076;-61
2023/01/07 02:51:46;;;;;;;7.18;4.47;;;;;;;;;;10311373;28;20059;-62
2023/01/07 02:56:58;;;;;;;6.10;4.32;;;;;;;;;;10306301;28;20044;-61
2023/01/07 03:02:18;;;;;;;5.70;3.80;;;;;;;;;;10298771;28;20347;-61
2023/01/07 03:07:24;;;;;;;5.53;4.90;;;;;;;;;;10249448;28;20080;-61
2023/01/07 03:12:27;;;;;;;5.18;4.47;;;;;;;;;;10273866;28;20065;-61
2023/01/07 03:17:27;;;;;;;5.97;4.38;;;;;;;;;;10296989;28;20052;-61
2023/01/07 03:22:31;;;;;;;5.68;4.45;;;;;;;;;;10280016;28;20258;-60
2023/01/07 03:27:32;;;;;;;7.50;5.60;;;;;;;;;;10285595;28;20041;-60
2023/01/07 03:32:32;;;;;;;5.45;4.47;;;;;;;;;;10292836;28;20397;-60
2023/01/07 03:37:34;;;;;;;8.93;5.15;;;;;;;;;;10286448;28;20469;-61
2023/01/07 03:42:41;;;;;;;11.70;8.15;;;;;;;;;;10287025;28;20045;-61
2023/01/07 03:47:51;;;;;;;6.40;5.47;;;;;;;;;;10291234;28;20179;-61
2023/01/07 03:52:51;;;;;;;6.75;4.88;;;;;;;;;;10257317;28;20068;-62
2023/01/07 03:57:51;;;;;;;14.93;10.52;;;;;;;;;;10301650;28;20088;-61
2023/01/07 04:02:49;;;;;;;17.70;13.80;;;;;;;;;;10287704;28;20061;-61
2023/01/07 04:07:54;;;;;;;11.68;7.82;;;;;;;;;;10288925;28;20063;-61
2023/01/07 04:12:55;;;;;;;5.80;4.40;;;;;;;;;;10304936;28;20049;-61
2023/01/07 04:17:53;;;;;;;7.88;5.32;;;;;;;;;;10293137;28;20064;-61
2023/01/07 04:22:53;;;;;;;7.65;5.45;;;;;;;;;;10284591;28;20052;-61
2023/01/07 04:27:52;;;;;;;11.48;8.02;;;;;;;;;;10277649;28;20056;-61
2023/01/07 04:32:52;;;;;;;11.25;6.93;;;;;;;;;;10280887;28;20047;-61
2023/01/07 04:37:51;;;;;;;8.32;5.55;;;;;;;;;;10296368;28;20132;-61
2023/01/07 04:42:49;;;;;;;33.53;28.05;;;;;;;;;;10287576;28;20049;-61
2023/01/07 04:47:49;;;;;;;21.45;18.70;;;;;;;;;;10274153;28;20379;-61
2023/01/07 04:52:47;;;;;;;13.90;12.02;;;;;;;;;;10261141;28;20084;-60
2023/01/07 04:57:46;;;;;;;10.40;8.48;;;;;;;;;;10295945;28;20068;-60
2023/01/07 05:02:45;;;;;;;10.15;5.93;;;;;;;;;;10282694;28;20595;-61
2023/01/07 05:07:45;;;;;;;9.57;5.45;;;;;;;;;;10297933;28;20094;-61
2023/01/07 05:12:43;;;;;;;6.68;5.45;;;;;;;;;;10298567;28;20063;-61
2023/01/07 05:17:44;;;;;;;13.38;6.55;;;;;;;;;;10291083;28;20056;-61
2023/01/07 05:22:45;;;;;;;8.43;6.60;;;;;;;;;;10291568;28;20068;-61
2023/01/07 05:27:43;;;;;;;18.20;16.40;;;;;;;;;;10276552;28;20052;-61
2023/01/07 05:32:42;;;;;;;11.98;9.93;;;;;;;;;;10282154;28;20112;-61
2023/01/07 05:37:41;;;;;;;10.57;9.40;;;;;;;;;;10280088;28;20037;-61
2023/01/07 05:42:41;;;;;;;15.65;10.02;;;;;;;;;;10267189;28;20088;-61
2023/01/07 05:47:39;;;;;;;9.32;7.70;;;;;;;;;;10278818;28;20130;-61
2023/01/07 05:52:37;;;;;;;41.33;16.48;;;;;;;;;;10249738;28;20112;-61
2023/01/07 05:57:36;;;;;;;8.52;7.45;;;;;;;;;;10270634;28;20075;-61
2023/01/07 06:02:35;;;;;;;7.63;6.80;;;;;;;;;;10280573;28;20055;-60
2023/01/07 06:07:33;;;;;;;12.15;7.45;;;;;;;;;;10261391;28;20447;-60
2023/01/07 06:12:32;;;;;;;9.35;8.35;;;;;;;;;;10271179;28;20079;-60
2023/01/07 06:17:31;;;;;;;11.00;6.85;;;;;;;;;;10272183;28;20061;-60
2023/01/07 06:22:30;;;;;;;10.80;8.73;;;;;;;;;;10282544;28;20064;-60
2023/01/07 06:27:28;;;;;;;7.43;6.18;;;;;;;;;;10291608;28;20116;-60
2023/01/07 06:32:27;;;;;;;22.60;20.25;;;;;;;;;;10269077;28;20100;-60
2023/01/07 06:37:25;;;;;;;23.65;19.23;;;;;;;;;;10275881;28;20147;-60
2023/01/07 06:42:24;;;;;;;13.70;10.07;;;;;;;;;;10284870;28;20048;-60
2023/01/07 06:47:24;;;;;;;9.38;8.40;;;;;;;;;;10285808;28;20069;-60
2023/01/07 06:52:22;;;;;;;15.82;8.10;;;;;;;;;;10272886;28;20076;-60
2023/01/07 06:57:20;;;;;;;19.58;12.98;;;;;;;;;;10286210;28;20036;-60
2023/01/07 07:02:21;;;;;;;20.25;10.80;;;;;;;;;;10284060;28;20174;-60
2023/01/07 07:07:19;;;;;;;12.98;10.65;;;;;;;;;;10282485;28;20435;-60
2023/01/07 07:12:18;;;;;;;60.05;36.85;;;;;;;;;;10270436;28;20125;-60
2023/01/07 07:17:16;;;;;;;28.55;19.85;;;;;;;;;;10282737;28;20076;-61
2023/01/07 07:22:19;;;;;;;24.05;14.88;;;;;;;;;;10298790;28;20391;-62
2023/01/07 07:27:17;;;;;;;11.07;8.50;;;;;;;;;;10292283;28;20430;-62
2023/01/07 07:32:15;;;;;;;10.77;8.90;;;;;;;;;;10296380;28;20071;-62
2023/01/07 07:37:13;;;;;;;13.63;11.68;;;;;;;;;;10300277;28;20045;-62
2023/01/07 07:42:13;;;;;;;13.48;9.57;;;;;;;;;;10280291;28;20474;-61
2023/01/07 07:47:13;;;;;;;17.58;14.32;;;;;;;;;;10284514;28;20089;-61
2023/01/07 07:52:12;;;;;;;15.90;12.65;;;;;;;;;;10290781;28;20065;-62
2023/01/07 07:57:10;;;;;;;19.20;11.38;;;;;;;;;;10271606;28;20064;-61
2023/01/07 08:02:12;;;;;;;19.15;13.45;;;;;;;;;;10308371;28;20045;-61
2023/01/07 08:07:11;;;;;;;14.15;11.93;;;;;;;;;;10261029;28;20124;-61
2023/01/07 08:12:09;;;;;;;17.60;13.95;;;;;;;;;;10275543;28;20095;-60
2023/01/07 08:17:07;;;;;;;87.18;46.28;;;;;;;;;;10271192;28;20076;-61
2023/01/07 08:22:07;;;;;;;15.13;12.27;;;;;;;;;;10278743;28;20040;-61
2023/01/07 08:27:05;;;;;;;16.92;12.55;;;;;;;;;;10275582;28;20438;-60
2023/01/07 08:32:04;;;;;;;23.17;16.90;;;;;;;;;;10273504;28;20072;-60
2023/01/07 08:37:02;;;;;;;23.48;18.13;;;;;;;;;;10277133;28;20084;-61
2023/01/07 08:42:01;;;;;;;22.23;15.80;;;;;;;;;;10277339;28;20429;-61
2023/01/07 08:47:00;;;;;;;17.05;12.60;;;;;;;;;;10280132;28;20075;-62
2023/01/07 08:51:58;;;;;;;14.02;11.55;;;;;;;;;;10295461;28;20548;-62
2023/01/07 08:56:56;;;;;;;17.02;14.18;;;;;;;;;;10287563;28;20075;-62
2023/01/07 09:01:56;;;;;;;15.75;13.20;;;;;;;;;;10271201;28;20061;-62
2023/01/07 09:06:57;;;;;;;16.85;13.70;;;;;;;;;;10269540;28;20528;-61
2023/01/07 09:11:55;;;;;;;25.02;15.32;;;;;;;;;;10274950;28;20072;-61
2023/01/07 09:16:53;;;;;;;14.98;12.05;;;;;;;;;;10267957;28;20075;-61
2023/01/07 09:21:53;;;;;;;21.17;15.98;;;;;;;;;;10272239;28;20068;-61
2023/01/07 09:26:53;;;;;;;28.52;19.38;;;;;;;;;;10277144;28;20485;-61
2023/01/07 09:31:52;;;;;;;21.33;15.27;;;;;;;;;;10271393;28;20060;-61
2023/01/07 09:36:50;;;;;;;17.73;14.38;;;;;;;;;;10275853;28;20068;-61
2023/01/07 09:41:54;;;;;;;17.17;14.70;;;;;;;;;;10282226;28;20076;-62
2023/01/07 09:46:53;;;;;;;14.73;12.38;;;;;;;;;;10283361;28;20084;-61
2023/01/07 09:51:54;;;;;;;17.80;13.35;;;;;;;;;;10276111;28;20081;-63
2023/01/07 09:56:54;;;;;;;11.75;10.50;;;;;;;;;;10279367;28;20072;-62
2023/01/07 10:01:55;;;;;;;15.70;11.38;;;;;;;;;;10271779;28;20069;-62
2023/01/07 10:06:59;;;;;;;16.40;13.73;;;;;;;;;;10256018;28;20140;-62
2023/01/07 10:12:01;;;;;;;20.10;15.27;;;;;;;;;;10268754;28;20079;-62
2023/01/07 10:17:05;;;;;;;13.15;10.88;;;;;;;;;;10278107;28;20545;-62
2023/01/07 10:22:08;;;;;;;24.98;16.67;;;;;;;;;;10274490;28;20073;-62
2023/01/07 10:27:09;;;;;;;20.38;16.73;;;;;;;;;;10278917;28;20073;-63
2023/01/07 10:32:14;;;;;;;14.50;12.27;;;;;;;;;;10300400;28;20130;-63
2023/01/07 10:37:16;;;;;;;15.48;11.73;;;;;;;;;;10263630;28;20474;-62
2023/01/07 10:42:20;;;;;;;13.23;11.85;;;;;;;;;;10274949;28;20071;-62
2023/01/07 10:47:24;;;;;;;28.35;19.63;;;;;;;;;;10265940;28;20068;-62
2023/01/07 10:52:29;;;;;;;20.38;15.95;;;;;;;;;;10278299;28;20623;-61
2023/01/07 10:57:32;;;;;;;16.70;13.07;;;;;;;;;;10282384;28;20068;-60
2023/01/07 11:02:30;;;;;;;20.67;15.85;;;;;;;;;;10272852;28;20084;-62
2023/01/07 11:07:31;;;;;;;16.85;13.13;;;;;;;;;;10279647;28;20068;-62
2023/01/07 11:12:36;;;;;;;15.45;11.88;;;;;;;;;;10281665;28;20068;-62
2023/01/07 11:17:36;;;;;;;19.37;14.53;;;;;;;;;;10276761;28;20075;-61
2023/01/07 11:22:35;;;;;;;27.67;17.70;;;;;;;;;;10284608;28;20098;-62
2023/01/07 11:27:35;;;;;;;25.75;17.50;;;;;;;;;;10272535;28;20473;-61
2023/01/07 11:32:37;;;;;;;22.33;16.48;;;;;;;;;;10299370;28;20109;-62
2023/01/07 11:37:37;;;;;;;17.30;13.68;;;;;;;;;;10300284;28;20060;-62
2023/01/07 11:42:46;;;;;;;24.02;18.30;;;;;;;;;;10286864;28;20065;-62
2023/01/07 11:47:46;;;;;;;14.15;12.65;;;;;;;;;;10280164;28;20068;-62
2023/01/07 11:52:54;;;;;;;18.33;14.65;;;;;;;;;;10297014;28;20084;-62
2023/01/07 11:57:54;;;;;;;23.98;18.40;;;;;;;;;;10281700;28;20160;-62
2023/01/07 12:03:13;;;;;;;27.27;20.40;;;;;;;;;;10270508;28;20076;-63
2023/01/07 12:08:19;;;;;;;16.65;13.38;;;;;;;;;;10278522;28;20095;-62
2023/01/07 12:13:20;;;;;;;15.05;13.13;;;;;;;;;;10284801;28;20474;-64
2023/01/07 12:18:42;;;;;;;23.05;18.27;;;;;;;;;;10270302;28;20060;-62
2023/01/07 12:23:46;;;;;;;20.45;14.55;;;;;;;;;;10261323;28;20087;-62
2023/01/07 12:28:52;;;;;;;16.77;12.57;;;;;;;;;;10282759;28;20069;-63
2023/01/07 12:34:04;;;;;;;21.40;14.82;;;;;;;;;;10269444;28;20462;-61
2023/01/07 12:39:04;;;;;;;24.40;18.35;;;;;;;;;;10271256;28;20402;-60
2023/01/07 12:44:06;;;;;;;19.38;15.93;;;;;;;;;;10280493;28;20065;-61
2023/01/07 12:49:07;;;;;;;25.60;18.27;;;;;;;;;;10304453;28;20082;-61
2023/01/07 12:54:11;;;;;;;20.02;15.45;;;;;;;;;;10311992;28;20072;-61
2023/01/07 12:59:17;;;;;;;21.40;15.52;;;;;;;;;;10300384;28;20064;-61
2023/01/07 13:04:41;;;;;;;27.92;19.35;;;;;;;;;;10275344;28;20084;-61
2023/01/07 13:09:41;;;;;;;22.60;18.33;;;;;;;;;;10274983;28;20068;-61
2023/01/07 13:14:42;;;;;;;17.95;15.32;;;;;;;;;;10269954;28;20093;-62
2023/01/07 13:19:40;;;;;;;18.67;14.63;;;;;;;;;;10286420;28;20045;-62
2023/01/07 13:24:44;;;;;;;23.38;17.55;;;;;;;;;;10302293;28;20120;-62
2023/01/07 13:29:59;;;;;;;15.65;13.95;;;;;;;;;;10315593;28;20081;-62
2023/01/07 13:35:03;;;;;;;22.60;16.75;;;;;;;;;;10285135;28;20048;-59
2023/01/07 13:40:11;;;;;;;21.58;17.67;;;;;;;;;;10288715;28;20087;-61
2023/01/07 13:45:13;;;;;;;21.55;17.73;;;;;;;;;;10293740;28;20044;-62
2023/01/07 13:50:22;;;;;;;36.72;29.13;;;;;;;;;;10278530;28;20426;-62
2023/01/07 13:55:34;;;;;;;22.42;17.73;;;;;;;;;;10274131;28;20068;-60
2023/01/07 14:00:41;;;;;;;21.10;15.23;;;;;;;;;;10280405;28;20101;-61
2023/01/07 14:05:41;;;;;;;25.80;19.50;;;;;;;;;;10274736;28;20499;-61
2023/01/07 14:10:39;;;;;;;46.65;41.58;;;;;;;;;;10275603;28;20072;-61
2023/01/07 14:15:52;;;;;;;46.42;41.30;;;;;;;;;;10287705;28;20051;-60
2023/01/07 14:20:54;;;;;;;25.58;21.23;;;;;;;;;;10264221;28;20164;-61
2023/01/07 14:26:07;;;;;;;25.23;20.88;;;;;;;;;;10288114;28;20072;-60
2023/01/07 14:31:18;;;;;;;17.55;14.75;;;;;;;;;;10279724;28;20480;-60
2023/01/07 14:36:17;;;;;;;20.35;17.52;;;;;;;;;;10288582;28;20063;-61
2023/01/07 14:41:15;;;;;;;24.27;19.33;;;;;;;;;;10291579;28;20401;-61
2023/01/07 14:46:32;;;;;;;20.70;15.30;;;;;;;;;;10304693;28;20071;-62
2023/01/07 14:51:44;;;;;;;24.23;18.42;;;;;;;;;;10258696;28;20087;-60
2023/01/07 14:56:49;;;;;;;76.65;48.25;;;;;;;;;;10264278;28;20061;-60
2023/01/07 15:01:51;;;;;;;53.47;33.47;;;;;;;;;;10272096;28;20091;-61
2023/01/07 15:06:55;;;;;;;37.65;26.13;;;;;;;;;;10266241;28;20122;-59
2023/01/07 15:17:12;;;;;;;83.35;40.40;;;;;;;;;;10269884;28;20159;-60
2023/01/07 15:22:27;;;;;;;67.25;40.03;;;;;;;;;;10264404;28;20067;-60
2023/01/07 15:27:31;;;;;;;48.20;29.33;;;;;;;;;;10255064;28;20056;-59
2023/01/07 15:32:36;;;;;;;31.67;22.55;;;;;;;;;;10278353;28;20076;-60
2023/01/07 15:37:36;;;;;;;19.38;15.73;;;;;;;;;;10255424;28;20425;-60
2023/01/07 15:42:34;;;;;;;28.85;23.77;;;;;;;;;;10257037;28;20113;-61
2023/01/07 15:47:36;;;;;;;48.00;33.70;;;;;;;;;;10259985;28;20064;-62
2023/01/07 15:52:37;;;;;;;21.48;17.05;;;;;;;;;;10275481;28;20080;-62
2023/01/07 15:57:36;;;;;;;20.50;15.35;;;;;;;;;;10270842;28;20496;-62
2023/01/07 16:02:37;;;;;;;41.63;25.88;;;;;;;;;;10270482;28;20135;-61
2023/01/07 16:07:41;;;;;;;67.53;37.63;;;;;;;;;;10265128;28;20073;-61
2023/01/07 16:12:39;;;;;;;109.18;64.53;;;;;;;;;;10269922;28;20045;-62
2023/01/07 16:17:48;;;;;;;67.07;43.58;;;;;;;;;;10284146;28;20083;-60
2023/01/07 16:22:48;;;;;;;42.55;28.92;;;;;;;;;;10285668;28;20540;-60
2023/01/07 16:27:47;;;;;;;28.77;19.58;;;;;;;;;;10268296;28;20461;-61
2023/01/07 16:32:45;;;;;;;24.38;19.27;;;;;;;;;;10268963;28;20077;-60
2023/01/07 16:37:44;;;;;;;20.55;16.85;;;;;;;;;;10281833;28;20122;-60
2023/01/07 16:42:46;;;;;;;69.07;46.53;;;;;;;;;;10272594;28;20444;-61
2023/01/07 16:47:58;;;;;;;40.08;29.20;;;;;;;;;;10286607;28;20084;-60
2023/01/07 16:52:57;;;;;;;33.58;26.98;;;;;;;;;;10304405;28;20083;-60
2023/01/07 16:57:56;;;;;;;59.75;40.13;;;;;;;;;;10307146;28;20132;-61
2023/01/07 17:02:58;;;;;;;58.40;42.53;;;;;;;;;;10308512;28;20079;-61
2023/01/07 17:07:57;;;;;;;50.28;37.42;;;;;;;;;;10290845;28;20148;-61
2023/01/07 17:12:58;;;;;;;42.33;32.03;;;;;;;;;;10307631;28;20087;-60
2023/01/07 17:18:19;;;;;;;29.98;23.85;;;;;;;;;;10295671;28;20044;-61
2023/01/07 17:23:41;;;;;;;37.50;31.67;;;;;;;;;;10308967;28;20048;-61
2023/01/07 17:28:45;;;;;;;116.30;80.63;;;;;;;;;;10273818;28;20091;-61
2023/01/07 17:33:44;;;;;;;169.57;108.13;;;;;;;;;;10308427;28;20472;-61
2023/01/07 17:38:42;;;;;;;87.47;56.05;;;;;;;;;;10309996;28;20095;-61
2023/01/07 17:43:40;;;;;;;47.50;29.42;;;;;;;;;;10297380;28;20067;-61
2023/01/07 17:48:40;;;;;;;72.43;50.50;;;;;;;;;;10310061;28;20052;-61
2023/01/07 17:53:45;;;;;;;70.07;50.88;;;;;;;;;;10306394;28;20520;-61
2023/01/07 17:58:46;;;;;;;71.00;52.03;;;;;;;;;;10307609;28;20092;-60
2023/01/07 18:03:46;;;;;;;53.97;40.22;;;;;;;;;;10301376;28;20055;-60
2023/01/07 18:08:44;;;;;;;45.03;34.78;;;;;;;;;;10275013;28;20056;-61
2023/01/07 18:13:42;;;;;;;51.45;34.97;;;;;;;;;;10260106;28;20515;-62
2023/01/07 18:18:40;;;;;;;44.28;31.08;;;;;;;;;;10264722;28;20060;-61
2023/01/07 18:23:40;;;;;;;77.80;44.28;;;;;;;;;;10265982;28;20064;-61
2023/01/07 18:28:38;;;;;;;46.90;35.17;;;;;;;;;;10272779;28;20075;-62
2023/01/07 18:33:36;;;;;;;34.55;26.02;;;;;;;;;;10291716;28;20453;-61
2023/01/07 18:38:35;;;;;;;42.00;29.45;;;;;;;;;;10286034;28;20068;-61
2023/01/07 18:43:34;;;;;;;40.15;28.92;;;;;;;;;;10264788;28;20126;-62
2023/01/07 18:48:33;;;;;;;44.53;28.70;;;;;;;;;;10293387;28;20072;-62
2023/01/07 18:53:31;;;;;;;35.08;23.50;;;;;;;;;;10262769;28;20120;-61
2023/01/07 18:58:29;;;;;;;71.00;38.10;;;;;;;;;;10274789;28;20075;-61
2023/01/07 19:03:29;;;;;;;43.20;25.42;;;;;;;;;;10285342;28;20060;-62
2023/01/07 19:08:27;;;;;;;113.50;62.83;;;;;;;;;;10303882;28;20455;-62
2023/01/07 19:13:28;;;;;;;70.90;38.53;;;;;;;;;;10274275;28;20069;-62
2023/01/07 19:18:26;;;;;;;75.18;42.85;;;;;;;;;;10281730;28;20381;-61
2023/01/07 19:23:26;;;;;;;72.20;39.05;;;;;;;;;;10281193;28;20551;-62
2023/01/07 19:28:24;;;;;;;65.43;37.70;;;;;;;;;;10276262;28;20421;-61
2023/01/07 19:33:23;;;;;;;75.50;56.28;;;;;;;;;;10287091;28;20072;-62
2023/01/07 19:38:21;;;;;;;36.90;26.85;;;;;;;;;;10290939;28;20431;-62
2023/01/07 19:43:20;;;;;;;25.38;19.63;;;;;;;;;;10281925;28;20382;-61
2023/01/07 19:48:19;;;;;;;32.67;21.83;;;;;;;;;;10272733;28;20091;-61
2023/01/07 19:53:17;;;;;;;45.58;26.90;;;;;;;;;;10269971;28;20131;-61
2023/01/07 19:58:16;;;;;;;34.65;23.92;;;;;;;;;;10275117;28;20051;-61
2023/01/07 20:03:16;;;;;;;72.07;43.88;;;;;;;;;;10270056;28;20427;-61
2023/01/07 20:08:14;;;;;;;30.92;16.60;;;;;;;;;;10266689;28;20409;-61
2023/01/07 20:13:12;;;;;;;28.17;19.38;;;;;;;;;;10275925;28;20128;-61
2023/01/07 20:18:13;;;;;;;60.25;37.70;;;;;;;;;;10269634;28;20041;-61
2023/01/07 20:23:13;;;;;;;90.90;50.75;;;;;;;;;;10278905;28;20120;-60
2023/01/07 20:28:11;;;;;;;107.72;58.17;;;;;;;;;;10270742;28;20426;-60
2023/01/07 20:33:09;;;;;;;82.00;47.60;;;;;;;;;;10268491;28;20447;-61
2023/01/07 20:38:10;;;;;;;46.78;29.42;;;;;;;;;;10266864;28;20053;-61
2023/01/07 20:43:11;;;;;;;29.42;23.27;;;;;;;;;;10272107;28;20398;-61
2023/01/07 20:48:11;;;;;;;15.45;12.05;;;;;;;;;;10270588;28;20144;-61
2023/01/07 20:53:09;;;;;;;16.10;12.10;;;;;;;;;;10273157;28;20084;-61
2023/01/07 20:58:09;;;;;;;16.70;14.60;;;;;;;;;;10264801;28;20479;-61
2023/01/07 21:03:07;;;;;;;23.02;19.95;;;;;;;;;;10269502;28;20045;-61
2023/01/07 21:08:05;;;;;;;17.02;12.25;;;;;;;;;;10267813;28;20079;-61
2023/01/07 21:13:04;;;;;;;10.48;9.38;;;;;;;;;;10279096;28;20075;-61
2023/01/07 21:18:04;;;;;;;12.07;9.10;;;;;;;;;;10267582;28;20490;-60
2023/01/07 21:23:02;;;;;;;10.48;9.38;;;;;;;;;;10263310;28;20087;-61
2023/01/07 21:28:00;;;;;;;13.07;10.57;;;;;;;;;;10267666;28;20463;-60
2023/01/07 21:32:59;;;;;;;16.52;13.77;;;;;;;;;;10280652;28;20081;-62
2023/01/07 21:37:58;;;;;;;13.57;12.07;;;;;;;;;;10283701;28;20475;-61
2023/01/07 21:42:57;;;;;;;21.73;12.98;;;;;;;;;;10286243;28;20478;-61
2023/01/07 21:47:55;;;;;;;18.40;12.68;;;;;;;;;;10269061;28;20156;-61
2023/01/07 21:52:53;;;;;;;18.75;13.88;;;;;;;;;;10265033;28;20091;-62
2023/01/07 21:57:53;;;;;;;19.17;12.73;;;;;;;;;;10267103;28;20076;-61
2023/01/07 22:02:51;;;;;;;18.58;14.45;;;;;;;;;;10291657;28;20092;-61
2023/01/07 22:07:49;;;;;;;15.52;12.00;;;;;;;;;;10271609;28;20450;-61
2023/01/07 22:12:47;;;;;;;11.63;9.02;;;;;;;;;;10262827;28;20072;-62
2023/01/07 22:17:47;;;;;;;9.43;6.55;;;;;;;;;;10265911;28;20052;-61
2023/01/07 22:22:45;;;;;;;8.75;7.40;;;;;;;;;;10264757;28;20430;-61
2023/01/07 22:27:44;;;;;;;7.80;6.43;;;;;;;;;;10262683;28;20063;-61
2023/01/07 22:32:42;;;;;;;10.27;7.32;;;;;;;;;;10263170;28;20482;-62
2023/01/07 22:37:41;;;;;;;13.18;10.60;;;;;;;;;;10270163;28;20064;-60
2023/01/07 22:42:42;;;;;;;12.10;9.90;;;;;;;;;;10294188;28;20037;-61
2023/01/07 22:47:42;;;;;;;11.77;9.38;;;;;;;;;;10261716;28;20076;-61
2023/01/07 22:52:42;;;;;;;12.48;10.55;;;;;;;;;;10277546;28;20085;-61
2023/01/07 22:57:41;;;;;;;11.32;7.25;;;;;;;;;;10291947;28;20152;-61
2023/01/07 23:02:39;;;;;;;27.42;18.58;;;;;;;;;;10296420;28;20064;-61
2023/01/07 23:07:37;;;;;;;37.40;24.98;;;;;;;;;;10279518;28;20600;-61
2023/01/07 23:12:37;;;;;;;11.02;8.55;;;;;;;;;;10271806;28;20072;-61
2023/01/07 23:17:35;;;;;;;10.18;7.90;;;;;;;;;;10287114;28;20063;-61
2023/01/07 23:22:33;;;;;;;22.42;17.60;;;;;;;;;;10302429;28;20128;-61
2023/01/07 23:27:31;;;;;;;35.20;24.80;;;;;;;;;;10274471;28;20040;-61
2023/01/07 23:32:31;;;;;;;19.58;13.85;;;;;;;;;;10286711;28;20072;-61
2023/01/07 23:37:29;;;;;;;14.18;10.38;;;;;;;;;;10292751;28;20405;-61
2023/01/07 23:42:27;;;;;;;7.53;6.43;;;;;;;;;;10312219;28;20061;-61
2023/01/07 23:47:26;;;;;;;6.30;5.03;;;;;;;;;;10311685;28;20059;-60
2023/01/07 23:52:25;;;;;;;12.00;8.25;;;;;;;;;;10298048;28;20190;-61
2023/01/07 23:57:23;;;;;;;13.25;8.95;;;;;;;;;;10297048;28;20041;-61
